Time;durP1;ratioP1;P1;durP2;ratioP2;P2;SDS_P1;SDS_P2;PMS_P1;PMS_P2;Temp;Humidity;BMP_temperature;BMP_pressure;BME280_temperature;BME280_humidity;BME280_pressure;Samples;Min_cycle;Max_cycle;Signal;HPM_P1;HPM_P2
2023/12/24 10:51:45;;;;;;;19.40;9.00;;;;;;;2.31;100.00;99257.30;104003;1283;602778;-91
2023/12/24 10:54:31;;;;;;;18.20;8.00;;;;;;;3.50;100.00;99252.73;103248;1289;600591;-91
2023/12/24 10:57:05;;;;;;;17.00;7.90;;;;;;;4.33;100.00;99252.21;103262;1296;60454;-91
2023/12/24 10:59:43;;;;;;;14.90;6.70;;;;;;;4.15;100.00;99252.69;103006;1295;61682;-89
2023/12/24 11:02:28;;;;;;;17.00;7.50;;;;;;;4.02;100.00;99252.67;102838;1291;601267;-87
2023/12/24 11:04:57;;;;;;;16.70;7.20;;;;;;;3.94;100.00;99256.52;102952;1297;61248;-87
2023/12/24 11:07:35;;;;;;;1915.20;229.90;;;;;;;3.97;100.00;99258.33;103018;1291;61491;-85
2023/12/24 11:10:05;;;;;;;342.90;39.80;;;;;;;4.10;100.00;99262.62;102998;1296;72067;-87
2023/12/24 11:12:35;;;;;;;21.50;6.90;;;;;;;4.13;100.00;99268.41;102869;1291;73616;-85
2023/12/24 11:18:04;;;;;;;50.80;10.20;;;;;;;4.07;100.00;99273.46;102971;1289;600731;-87
2023/12/24 11:20:37;;;;;;;37.70;8.80;;;;;;;3.97;100.00;99279.20;102683;1294;60602;-88
2023/12/24 11:23:06;;;;;;;14.60;7.10;;;;;;;3.91;100.00;99285.81;103132;1289;60655;-88
2023/12/24 11:25:51;;;;;;;16.80;6.80;;;;;;;3.88;100.00;99284.91;103228;1293;73575;-85
2023/12/24 11:31:55;;;;;;;13.20;6.40;;;;;;;3.93;100.00;99290.62;102937;1292;616736;-87
2023/12/24 11:34:39;;;;;;;12.50;5.70;;;;;;;3.97;100.00;99291.52;102867;1296;60468;-87
2023/12/24 11:37:34;;;;;;;14.60;6.30;;;;;;;3.88;100.00;99296.68;103794;1288;602522;-87
2023/12/24 11:40:20;;;;;;;13.70;6.20;;;;;;;3.57;100.00;99299.92;103448;1287;61852;-86
2023/12/24 11:42:49;;;;;;;14.40;6.60;;;;;;;3.64;100.00;99298.67;103576;1285;60841;-87
2023/12/24 11:45:23;;;;;;;13.30;6.10;;;;;;;3.60;100.00;99302.45;103288;1288;71349;-87
2023/12/24 11:47:53;;;;;;;14.80;6.50;;;;;;;3.63;100.00;99307.39;103265;1295;73494;-87
2023/12/24 11:50:19;;;;;;;17.20;7.10;;;;;;;3.60;100.00;99313.90;102221;1287;1446216;-88
2023/12/24 11:53:17;;;;;;;12.70;6.20;;;;;;;3.69;100.00;99320.80;103734;1292;60602;-88
2023/12/24 11:55:47;;;;;;;16.00;7.20;;;;;;;3.80;100.00;99323.71;103981;1291;60496;-87
2023/12/24 11:58:20;;;;;;;47.80;9.30;;;;;;;3.67;100.00;99327.48;103573;1291;73572;-87
2023/12/24 12:06:59;;;;;;;21.30;7.20;;;;;;;3.35;100.00;99327.66;102669;1306;61109;-87
2023/12/24 12:09:24;;;;;;;21.10;6.20;;;;;;;3.58;100.00;99330.17;102224;1312;60682;-87
2023/12/24 12:11:53;;;;;;;15.20;6.40;;;;;;;3.46;100.00;99330.80;102413;1311;59945;-88
2023/12/24 12:17:35;;;;;;;12.30;6.00;;;;;;;3.35;100.00;99335.86;103720;1289;601160;-88
2023/12/24 12:20:17;;;;;;;11.90;5.80;;;;;;;3.18;100.00;99339.38;103264;1290;602199;-88
2023/12/24 12:26:48;;;;;;;14.60;5.30;;;;;;;3.14;100.00;99349.11;103496;1288;615106;-88
2023/12/24 12:29:16;;;;;;;13.50;5.10;;;;;;;3.06;100.00;99352.02;103704;1288;62220;-88
2023/12/24 12:32:04;;;;;;;13.60;5.80;;;;;;;3.11;100.00;99349.91;103206;1295;599420;-89
2023/12/24 12:35:07;;;;;;;12.30;5.10;;;;;;;3.33;100.00;99350.27;103280;1292;601375;-89
2023/12/24 12:37:33;;;;;;;10.30;4.90;;;;;;;3.21;100.00;99355.29;103788;1294;62152;-91
2023/12/24 12:40:06;;;;;;;10.10;4.90;;;;;;;3.17;100.00;99361.36;102832;1303;60400;-89
2023/12/24 12:42:35;;;;;;;13.80;5.70;;;;;;;3.21;100.00;99363.75;102584;1300;73838;-88
2023/12/24 12:45:01;;;;;;;12.20;5.90;;;;;;;3.22;100.00;99362.50;102789;1305;74580;-90
2023/12/24 12:47:27;;;;;;;14.80;5.60;;;;;;;3.25;100.00;99371.32;101978;1300;1386368;-89
2023/12/24 12:49:53;;;;;;;14.60;5.50;;;;;;;3.20;100.00;99379.73;102606;1297;60568;-90
2023/12/24 12:52:19;;;;;;;10.50;5.20;;;;;;;3.19;100.00;99381.02;103322;1299;60952;-90
2023/12/24 12:54:47;;;;;;;13.40;5.40;;;;;;;3.00;100.00;99375.93;102801;1302;60454;-91
2023/12/24 12:57:28;;;;;;;16.50;6.50;;;;;;;3.17;100.00;99385.64;103633;1295;60293;-89
2023/12/24 13:00:13;;;;;;;12.80;5.70;;;;;;;3.35;100.00;99389.59;103264;1296;73821;-93
2023/12/24 13:05:56;;;;;;;12.80;5.10;;;;;;;3.10;100.00;99396.37;103605;1288;600931;-89
2023/12/24 13:08:42;;;;;;;8.50;4.40;;;;;;;3.06;100.00;99396.62;103840;1286;601427;-90
2023/12/24 13:11:08;;;;;;;9.80;5.00;;;;;;;2.97;100.00;99401.27;103306;1288;61627;-91
2023/12/24 13:14:08;;;;;;;14.50;5.20;;;;;;;2.87;100.00;99403.11;104082;1289;60531;-93
2023/12/24 13:16:34;;;;;;;13.50;5.60;;;;;;;2.79;100.00;99404.67;103750;1298;74532;-87
2023/12/24 13:19:35;;;;;;;16.90;6.50;;;;;;;2.77;100.00;99403.13;103351;1300;60398;-89
2023/12/24 13:22:24;;;;;;;12.80;5.90;;;;;;;2.68;100.00;99401.80;99648;1294;5305120;-94
2023/12/24 13:25:13;;;;;;;;;;;;;;;;;;;;;
2023/12/24 13:28:24;;;;;;;13.00;6.30;;;;;;;2.79;100.00;99413.92;103779;1299;72528;-94
2023/12/24 13:30:50;;;;;;;14.40;6.00;;;;;;;2.77;100.00;99415.05;103189;1297;73626;-92
2023/12/24 13:45:04;;;;;;;19.30;7.60;;;;;;;3.21;100.00;99434.52;106159;1292;59756;-95
2023/12/24 13:47:29;;;;;;;16.60;7.90;;;;;;;3.34;100.00;99444.11;104498;1295;71488;-93
2023/12/24 13:50:17;;;;;;;14.50;7.20;;;;;;;3.12;100.00;99450.76;104151;1299;73489;-93
2023/12/24 13:55:48;;;;;;;15.30;7.90;;;;;;;3.17;100.00;99452.77;103439;1302;60407;-92
2023/12/24 13:58:23;;;;;;;22.30;8.40;;;;;;;2.95;100.00;99459.76;103291;1308;60525;-93
2023/12/24 14:01:11;;;;;;;24.70;11.30;;;;;;;3.45;100.00;99463.09;103336;1302;72284;-92
2023/12/24 14:06:40;;;;;;;63.30;27.30;;;;;;;2.60;100.00;99476.00;105219;1284;71729;-92
2023/12/24 14:09:11;;;;;;;18.30;8.70;;;;;;;2.45;100.00;99483.56;105765;1288;61232;-94
2023/12/24 14:11:38;;;;;;;24.70;10.00;;;;;;;2.31;100.00;99488.06;104441;1288;61924;-89
2023/12/24 14:14:09;;;;;;;19.80;10.20;;;;;;;2.31;100.00;99487.89;103053;1295;75195;-87
2023/12/24 14:33:02;;;;;;;25.60;11.80;;;;;;;3.69;100.00;99519.16;104077;1293;62624;-93
2023/12/24 14:35:28;;;;;;;29.00;13.20;;;;;;;3.86;100.00;99525.89;104012;1296;60873;-93
2023/12/24 14:38:11;;;;;;;28.30;13.20;;;;;;;3.94;100.00;99526.55;103140;1297;61072;-91
2023/12/24 14:40:37;;;;;;;23.80;11.60;;;;;;;4.03;100.00;99525.79;102789;1303;75092;-92
2023/12/24 14:43:03;;;;;;;35.20;17.60;;;;;;;4.08;100.00;99522.29;102880;1294;1337726;-93
2023/12/24 14:45:33;;;;;;;31.70;15.60;;;;;;;4.11;100.00;99528.36;103634;1294;60541;-93
2023/12/24 14:48:01;;;;;;;26.00;12.60;;;;;;;4.24;100.00;99536.40;103619;1301;60381;-92
2023/12/24 14:50:26;;;;;;;35.30;16.80;;;;;;;4.26;100.00;99544.43;103001;1299;71984;-92
2023/12/24 14:52:53;;;;;;;25.60;13.50;;;;;;;4.18;100.00;99551.15;102429;1294;60641;-90
2023/12/24 14:55:19;;;;;;;22.30;11.80;;;;;;;4.09;100.00;99553.17;102449;1294;60620;-90
2023/12/24 14:57:47;;;;;;;21.50;10.60;;;;;;;4.02;100.00;99563.93;102438;1294;60451;-89
2023/12/24 15:00:13;;;;;;;23.40;11.30;;;;;;;4.07;100.00;99570.53;102304;1304;60434;-90
2023/12/24 15:03:00;;;;;;;24.10;11.70;;;;;;;3.88;100.00;99579.39;103883;1285;599682;-91
2023/12/24 15:05:45;;;;;;;26.20;12.50;;;;;;;3.83;100.00;99580.52;103495;1289;60505;-91
2023/12/24 15:11:40;;;;;;;28.80;14.00;;;;;;;3.92;100.00;99593.09;103808;1286;602801;-91
2023/12/24 15:14:09;;;;;;;30.60;14.00;;;;;;;3.91;100.00;99590.67;103953;1289;60438;-92
2023/12/24 15:16:37;;;;;;;23.60;12.20;;;;;;;3.81;100.00;99605.42;103210;1288;61179;-90
2023/12/24 15:19:05;;;;;;;19.70;10.10;;;;;;;3.80;100.00;99608.56;103412;1289;72152;-92
2023/12/24 15:21:33;;;;;;;20.70;10.30;;;;;;;3.79;100.00;99612.92;106428;1289;73816;-93
2023/12/24 15:23:59;;;;;;;23.30;10.50;;;;;;;3.81;100.00;99616.41;105901;1296;386796;-92
2023/12/24 15:26:25;;;;;;;19.70;10.00;;;;;;;3.83;100.00;99620.51;106319;1289;58265;-92
2023/12/24 15:29:05;;;;;;;29.20;10.20;;;;;;;3.76;100.00;99619.73;106317;1288;58418;-89
2023/12/24 15:31:36;;;;;;;22.80;10.20;;;;;;;3.80;100.00;99628.48;106240;1290;73726;-87
2023/12/24 15:34:05;;;;;;;25.90;11.40;;;;;;;3.76;100.00;99628.64;106168;1291;73328;-86
2023/12/24 15:36:34;;;;;;;22.10;11.10;;;;;;;3.74;100.00;99630.14;106100;1291;71890;-87
2023/12/24 15:39:03;;;;;;;26.10;13.60;;;;;;;3.79;100.00;99635.02;105930;1295;61765;-87
2023/12/24 15:42:18;;;;;;;;;;;;;;;;;;;;;
2023/12/24 15:45:19;;;;;;;36.20;17.10;;;;;;;3.81;100.00;99641.29;105746;1297;73469;-86
2023/12/24 15:47:51;;;;;;;39.40;18.30;;;;;;;3.77;100.00;99640.53;105687;1297;73424;-86
2023/12/24 15:50:22;;;;;;;40.50;22.30;;;;;;;3.74;100.00;99639.56;105744;1297;73246;-88
2023/12/24 15:53:07;;;;;;;27.00;13.90;;;;;;;3.72;100.00;99642.73;105692;1297;61015;-87
2023/12/24 15:55:43;;;;;;;23.30;12.50;;;;;;;3.69;100.00;99647.41;105719;1296;60249;-87
2023/12/24 15:58:25;;;;;;;;;;;;;;;;;;;;;
2023/12/24 16:01:00;;;;;;;;;;;;;;;;;;;;;
2023/12/24 16:03:26;;;;;;;25.40;11.40;;;;;;;3.68;100.00;99659.00;105577;1295;72981;-87
2023/12/24 16:05:51;;;;;;;24.60;11.40;;;;;;;3.66;100.00;99666.91;105713;1296;58421;-86
2023/12/24 16:08:52;;;;;;;;;;;;;;;;;;;;;
2023/12/24 16:11:20;;;;;;;25.20;10.60;;;;;;;3.62;100.00;99678.17;105582;1297;73217;-85
2023/12/24 16:13:58;;;;;;;24.30;10.80;;;;;;;3.68;100.00;99681.02;105563;1299;73173;-87
2023/12/24 16:16:26;;;;;;;25.60;10.40;;;;;;;3.67;100.00;99685.63;105436;1299;72195;-87
2023/12/24 16:18:51;;;;;;;23.60;10.90;;;;;;;3.70;100.00;99688.35;105547;1299;60932;-87
2023/12/24 16:21:28;;;;;;;23.30;11.40;;;;;;;3.63;100.00;99687.00;105812;1295;58396;-87
2023/12/24 16:23:58;;;;;;;22.80;10.00;;;;;;;3.56;100.00;99687.44;105964;1292;72881;-85
2023/12/24 16:26:26;;;;;;;23.10;10.10;;;;;;;3.62;100.00;99687.79;106012;1292;73416;-86
2023/12/24 16:29:02;;;;;;;36.40;17.70;;;;;;;3.61;100.00;99690.86;105919;1293;72943;-86
2023/12/24 16:31:47;;;;;;;;;;;;;;;;;;;;;
2023/12/24 16:34:25;;;;;;;30.60;14.30;;;;;;;3.64;100.00;99692.45;105929;1294;60676;-87
2023/12/24 16:37:03;;;;;;;;;;;;;;;;;;;;;
2023/12/24 16:39:39;;;;;;;31.10;16.90;;;;;;;3.58;100.00;99699.27;105907;1293;74837;-88
2023/12/24 16:42:35;;;;;;;;;;;;;;;;;;;;;
2023/12/24 16:45:05;;;;;;;20.80;10.00;;;;;;;3.58;100.00;99703.21;106146;1288;62846;-86
2023/12/24 16:47:38;;;;;;;22.80;9.90;;;;;;;3.59;100.00;99707.50;106179;1292;61263;-87
2023/12/24 17:03:55;;;;;;;19.10;9.30;;;;;;;3.72;100.00;99724.53;102743;1296;612368;-85
2023/12/24 17:06:20;;;;;;;19.30;8.50;;;;;;;3.61;100.00;99736.36;103112;1291;139179;-85
2023/12/24 17:11:45;;;;;;;20.60;8.80;;;;;;;3.61;100.00;99741.68;103549;1285;600236;-85
2023/12/24 17:14:11;;;;;;;20.40;8.80;;;;;;;3.51;100.00;99744.10;103314;1288;60623;-85
2023/12/24 17:16:36;;;;;;;21.40;9.40;;;;;;;3.48;100.00;99743.73;103556;1294;60963;-85
2023/12/24 17:22:21;;;;;;;22.80;9.60;;;;;;;3.51;100.00;99751.54;103335;1289;600341;-85
2023/12/24 17:24:47;;;;;;;19.90;10.20;;;;;;;3.41;100.00;99757.46;103374;1289;60471;-85
2023/12/24 17:27:13;;;;;;;22.40;9.90;;;;;;;3.48;100.00;99758.46;103247;1292;60611;-86
2023/12/24 17:29:38;;;;;;;21.90;9.50;;;;;;;3.42;100.00;99756.03;103221;1291;60944;-85
2023/12/24 17:32:04;;;;;;;19.90;9.60;;;;;;;3.38;100.00;99756.02;103183;1292;60432;-85
2023/12/24 17:34:30;;;;;;;20.90;9.70;;;;;;;3.33;100.00;99759.13;103118;1297;62163;-85
2023/12/24 17:37:35;;;;;;;21.40;10.20;;;;;;;3.39;100.00;99761.52;103289;1286;615109;-84
2023/12/24 17:40:00;;;;;;;21.60;9.50;;;;;;;3.42;100.00;99761.99;103333;1294;61061;-84
2023/12/24 17:42:26;;;;;;;23.40;10.60;;;;;;;3.27;100.00;99771.15;103519;1289;60417;-85
2023/12/24 17:48:50;;;;;;;20.90;9.40;;;;;;;3.30;100.00;99768.17;103061;1294;613850;-85
2023/12/24 17:51:15;;;;;;;19.80;8.90;;;;;;;3.27;100.00;99776.69;102879;1290;62651;-85
2023/12/24 17:53:41;;;;;;;18.80;8.80;;;;;;;3.31;100.00;99780.23;106292;1291;58665;-85
2023/12/24 17:56:06;;;;;;;22.10;11.70;;;;;;;3.31;100.00;99779.33;106070;1294;58175;-86
2023/12/24 17:58:32;;;;;;;22.50;9.80;;;;;;;3.33;100.00;99784.34;106099;1288;58363;-85
2023/12/24 18:00:57;;;;;;;21.90;9.20;;;;;;;3.30;100.00;99790.29;106051;1288;392367;-85
2023/12/24 18:03:23;;;;;;;21.00;11.20;;;;;;;3.34;100.00;99792.50;106735;1285;59952;-85
2023/12/24 18:05:48;;;;;;;27.20;10.40;;;;;;;3.37;100.00;99792.52;106725;1285;58199;-85
2023/12/24 18:08:17;;;;;;;23.10;9.50;;;;;;;3.40;100.00;99793.21;106711;1285;58270;-85
2023/12/24 18:10:42;;;;;;;24.40;11.40;;;;;;;3.42;100.00;99796.30;106705;1285;58061;-84
2023/12/24 18:13:08;;;;;;;37.20;16.70;;;;;;;3.39;100.00;99794.64;106302;1285;58301;-86
2023/12/24 18:15:33;;;;;;;25.10;11.00;;;;;;;3.35;100.00;99796.66;106450;1285;58209;-84
2023/12/24 18:18:02;;;;;;;27.20;11.70;;;;;;;3.26;100.00;99796.90;106558;1285;58117;-84
2023/12/24 18:20:28;;;;;;;19.70;8.40;;;;;;;3.32;100.00;99798.15;106265;1289;58648;-85
2023/12/24 18:22:59;;;;;;;17.20;8.10;;;;;;;3.35;100.00;99800.68;106251;1289;58231;-85
2023/12/24 18:25:28;;;;;;;18.60;8.20;;;;;;;3.39;100.00;99803.52;106064;1291;60117;-85
2023/12/24 18:27:53;;;;;;;16.70;8.20;;;;;;;3.30;100.00;99806.14;106277;1289;60637;-84
2023/12/24 18:30:22;;;;;;;15.40;7.20;;;;;;;3.26;100.00;99806.32;106208;1289;58643;-85
2023/12/24 18:32:47;;;;;;;18.50;7.20;;;;;;;3.33;100.00;99810.54;106128;1289;74353;-84
2023/12/24 18:35:13;;;;;;;15.30;7.20;;;;;;;3.28;100.00;99811.44;106169;1291;58401;-85
2023/12/24 18:37:38;;;;;;;15.40;7.30;;;;;;;3.31;100.00;99810.97;106150;1290;58133;-85
2023/12/24 18:40:05;;;;;;;15.60;7.20;;;;;;;3.32;100.00;99813.60;106214;1289;58131;-84
2023/12/24 18:42:30;;;;;;;16.50;7.90;;;;;;;3.26;100.00;99817.76;106221;1289;58148;-85
2023/12/24 18:44:56;;;;;;;14.90;7.30;;;;;;;3.23;100.00;99822.23;106163;1289;58338;-84
2023/12/24 18:47:21;;;;;;;16.10;7.60;;;;;;;3.26;100.00;99823.89;106009;1289;61984;-84
2023/12/24 18:49:47;;;;;;;14.40;7.30;;;;;;;3.25;100.00;99827.27;106256;1289;58249;-85
2023/12/24 18:52:12;;;;;;;12.80;6.80;;;;;;;3.30;100.00;99828.09;106223;1289;58211;-84
2023/12/24 18:54:38;;;;;;;18.00;7.80;;;;;;;3.30;100.00;99826.32;106112;1289;58222;-85
2023/12/24 18:57:04;;;;;;;17.10;7.70;;;;;;;3.34;100.00;99831.70;106188;1291;58163;-84
2023/12/24 18:59:30;;;;;;;16.80;7.40;;;;;;;3.33;100.00;99834.55;106505;1286;60101;-84
2023/12/24 19:01:55;;;;;;;16.50;7.40;;;;;;;3.33;100.00;99835.77;106382;1288;58096;-84
2023/12/24 19:04:21;;;;;;;18.80;7.60;;;;;;;3.31;100.00;99831.15;106415;1288;58194;-84
2023/12/24 19:06:46;;;;;;;12.90;6.80;;;;;;;3.32;100.00;99834.33;106279;1288;59043;-85
2023/12/24 19:09:12;;;;;;;17.80;7.70;;;;;;;3.28;100.00;99834.55;106401;1288;58222;-84
2023/12/24 19:11:38;;;;;;;19.90;8.60;;;;;;;3.19;100.00;99837.73;106343;1288;59082;-84
2023/12/24 19:14:03;;;;;;;17.00;8.40;;;;;;;3.20;100.00;99841.33;106283;1288;74758;-84
2023/12/24 19:16:31;;;;;;;20.40;9.60;;;;;;;3.11;100.00;99843.34;106281;1288;58252;-84
2023/12/24 19:18:56;;;;;;;28.30;14.20;;;;;;;3.11;100.00;99847.28;106138;1291;58256;-84
2023/12/24 19:21:22;;;;;;;16.60;8.10;;;;;;;3.05;100.00;99850.17;106154;1291;58185;-84
2023/12/24 19:23:48;;;;;;;22.80;9.80;;;;;;;3.03;100.00;99854.60;106122;1292;58292;-84
2023/12/24 19:26:16;;;;;;;16.50;7.90;;;;;;;3.00;100.00;99854.51;106183;1291;58141;-84
2023/12/24 19:28:42;;;;;;;17.30;8.30;;;;;;;3.01;100.00;99856.89;106131;1292;58442;-84
2023/12/24 19:31:11;;;;;;;17.40;8.30;;;;;;;2.95;100.00;99859.08;105928;1292;58372;-84
2023/12/24 19:33:37;;;;;;;14.70;7.30;;;;;;;2.96;100.00;99859.70;105900;1293;60194;-84
2023/12/24 19:36:03;;;;;;;18.40;8.20;;;;;;;2.97;100.00;99859.27;105900;1293;58612;-84
2023/12/24 19:38:29;;;;;;;18.50;8.30;;;;;;;2.95;100.00;99861.98;105959;1293;58741;-84
2023/12/24 19:40:54;;;;;;;18.70;8.90;;;;;;;2.95;100.00;99862.59;105675;1296;58373;-83
2023/12/24 19:43:20;;;;;;;17.80;8.30;;;;;;;2.94;100.00;99867.58;105619;1296;58227;-84
2023/12/24 19:45:45;;;;;;;21.80;8.60;;;;;;;2.94;100.00;99869.16;105720;1296;58390;-83
2023/12/24 19:48:11;;;;;;;18.80;8.40;;;;;;;2.93;100.00;99869.99;105628;1295;58377;-83
2023/12/24 19:50:37;;;;;;;17.30;8.50;;;;;;;2.89;100.00;99871.28;105992;1292;58350;-84
2023/12/24 19:53:02;;;;;;;14.40;7.50;;;;;;;2.88;100.00;99872.20;106088;1292;58181;-84
2023/12/24 19:55:28;;;;;;;16.80;7.90;;;;;;;2.81;100.00;99872.41;106148;1292;58258;-84
2023/12/24 19:57:53;;;;;;;20.10;11.50;;;;;;;2.85;100.00;99873.67;106172;1292;58578;-84
2023/12/24 20:00:19;;;;;;;16.00;7.60;;;;;;;2.78;100.00;99873.80;105820;1291;71428;-83
2023/12/24 20:02:44;;;;;;;15.30;7.00;;;;;;;2.72;100.00;99874.83;106129;1292;58308;-83
2023/12/24 20:05:16;;;;;;;16.50;7.70;;;;;;;2.80;100.00;99876.52;106227;1290;58312;-83
2023/12/24 20:07:42;;;;;;;15.90;7.00;;;;;;;2.82;100.00;99875.46;106258;1290;73008;-83
2023/12/24 20:10:08;;;;;;;14.90;6.80;;;;;;;2.81;100.00;99878.02;106187;1289;58277;-83
2023/12/24 20:12:34;;;;;;;15.50;7.10;;;;;;;2.79;100.00;99878.90;106253;1288;58292;-82
2023/12/24 20:14:59;;;;;;;14.60;6.40;;;;;;;2.82;100.00;99879.13;106712;1285;58197;-83
2023/12/24 20:17:25;;;;;;;14.70;6.50;;;;;;;2.79;100.00;99883.38;106768;1285;58111;-82
2023/12/24 20:19:50;;;;;;;16.50;7.80;;;;;;;2.82;100.00;99888.38;106622;1285;58137;-83
2023/12/24 20:22:23;;;;;;;16.40;7.00;;;;;;;2.79;100.00;99889.23;106375;1289;72384;-83
2023/12/24 20:24:48;;;;;;;12.80;6.00;;;;;;;2.79;100.00;99889.38;106704;1285;62007;-83
2023/12/24 20:27:18;;;;;;;16.80;7.80;;;;;;;2.75;100.00;99890.06;106714;1285;58127;-83
2023/12/24 20:29:44;;;;;;;21.30;10.40;;;;;;;2.80;100.00;99893.67;106586;1285;72799;-83
2023/12/24 20:32:10;;;;;;;26.60;12.20;;;;;;;2.73;100.00;99896.18;106761;1285;58194;-83
2023/12/24 20:34:35;;;;;;;25.10;11.60;;;;;;;2.69;100.00;99896.52;106732;1285;58256;-83
2023/12/24 20:37:00;;;;;;;22.80;10.80;;;;;;;2.66;100.00;99903.92;106734;1285;58445;-83
2023/12/24 20:39:26;;;;;;;19.20;8.70;;;;;;;2.68;100.00;99901.20;106795;1285;58075;-82
2023/12/24 20:41:51;;;;;;;15.30;7.00;;;;;;;2.62;100.00;99900.48;106729;1285;72585;-83
2023/12/24 20:44:17;;;;;;;17.40;7.40;;;;;;;2.68;100.00;99902.19;106556;1285;58220;-83
2023/12/24 20:46:46;;;;;;;14.80;6.80;;;;;;;2.63;100.00;99904.91;106749;1285;58403;-83
2023/12/24 20:49:12;;;;;;;18.10;8.10;;;;;;;2.60;100.00;99908.88;106323;1285;60246;-83
2023/12/24 20:51:41;;;;;;;14.10;6.70;;;;;;;2.54;100.00;99911.58;106596;1285;58428;-82
2023/12/24 20:54:07;;;;;;;14.00;6.90;;;;;;;2.56;100.00;99911.25;106719;1285;74280;-83
2023/12/24 20:56:33;;;;;;;15.90;6.70;;;;;;;2.56;100.00;99916.73;106559;1285;58180;-83
2023/12/24 20:59:01;;;;;;;17.30;8.00;;;;;;;2.59;100.00;99918.42;106540;1285;58170;-82
2023/12/24 21:01:29;;;;;;;19.00;7.40;;;;;;;2.54;100.00;99920.41;106526;1285;61178;-83
2023/12/24 21:03:55;;;;;;;15.30;6.70;;;;;;;2.55;100.00;99926.49;106703;1285;73720;-82
2023/12/24 21:06:20;;;;;;;13.60;6.70;;;;;;;2.57;100.00;99928.80;106598;1285;58088;-83
2023/12/24 21:08:49;;;;;;;15.10;7.70;;;;;;;2.61;100.00;99929.82;106400;1285;58422;-82
2023/12/24 21:11:14;;;;;;;13.60;7.10;;;;;;;2.54;100.00;99932.64;106533;1285;60072;-83
2023/12/24 21:13:40;;;;;;;15.50;7.00;;;;;;;2.56;100.00;99936.09;106323;1286;58212;-82
2023/12/24 21:16:07;;;;;;;19.50;7.50;;;;;;;2.58;100.00;99936.36;106740;1285;58110;-83
2023/12/24 21:18:32;;;;;;;17.50;7.70;;;;;;;2.62;100.00;99936.06;106737;1285;58183;-83
2023/12/24 21:20:58;;;;;;;13.40;7.00;;;;;;;2.60;100.00;99939.68;106546;1285;58053;-83
2023/12/24 21:23:25;;;;;;;19.50;7.60;;;;;;;2.59;100.00;99938.84;106561;1285;58056;-83
2023/12/24 21:25:50;;;;;;;13.70;6.90;;;;;;;2.57;100.00;99942.67;106783;1285;58277;-83
2023/12/24 21:28:16;;;;;;;15.80;7.40;;;;;;;2.58;100.00;99943.07;106502;1285;58350;-83
2023/12/24 21:30:42;;;;;;;20.30;7.70;;;;;;;2.52;100.00;99943.02;106545;1286;71564;-83
2023/12/24 21:33:07;;;;;;;12.30;6.60;;;;;;;2.56;100.00;99939.83;106662;1285;58142;-83
2023/12/24 21:35:32;;;;;;;15.70;7.40;;;;;;;2.58;100.00;99941.64;106737;1285;58082;-83
2023/12/24 21:37:58;;;;;;;16.20;7.50;;;;;;;2.58;100.00;99943.48;106570;1285;58138;-83
2023/12/24 21:40:25;;;;;;;15.60;7.20;;;;;;;2.57;100.00;99945.37;106793;1285;58053;-83
2023/12/24 21:42:50;;;;;;;14.00;7.10;;;;;;;2.58;100.00;99940.24;106379;1285;59996;-83
2023/12/24 21:45:16;;;;;;;16.60;7.20;;;;;;;2.59;100.00;99946.23;106471;1285;58486;-83
2023/12/24 21:47:41;;;;;;;13.90;7.10;;;;;;;2.62;100.00;99950.37;106573;1286;58152;-83
2023/12/24 21:50:10;;;;;;;16.20;7.60;;;;;;;2.65;100.00;99956.77;106183;1289;58154;-83
2023/12/24 21:52:42;;;;;;;13.10;7.00;;;;;;;2.69;100.00;99959.60;105849;1293;58372;-83
2023/12/24 21:55:07;;;;;;;17.50;7.80;;;;;;;2.65;100.00;99964.99;105800;1293;61057;-83
2023/12/24 21:57:33;;;;;;;17.10;8.00;;;;;;;2.66;100.00;99961.91;105869;1293;60654;-83
2023/12/24 21:59:58;;;;;;;15.70;7.10;;;;;;;2.70;100.00;99972.92;105806;1293;58386;-83
2023/12/24 22:02:24;;;;;;;14.80;7.60;;;;;;;2.69;100.00;99979.02;106003;1292;58761;-83
2023/12/24 22:04:52;;;;;;;14.10;7.00;;;;;;;2.65;100.00;99977.48;106018;1292;58519;-83
2023/12/24 22:07:17;;;;;;;15.80;7.30;;;;;;;2.61;100.00;99978.84;106027;1293;60113;-83
2023/12/24 22:09:43;;;;;;;13.40;6.80;;;;;;;2.58;100.00;99977.64;105934;1292;58786;-84
2023/12/24 22:12:08;;;;;;;15.90;7.60;;;;;;;2.54;100.00;99976.21;105923;1292;59042;-83
2023/12/24 22:14:34;;;;;;;15.50;6.70;;;;;;;2.50;100.00;99979.98;106009;1292;58355;-83
2023/12/24 22:16:59;;;;;;;14.90;7.10;;;;;;;2.47;100.00;99986.77;105844;1294;58407;-83
2023/12/24 22:19:25;;;;;;;14.50;7.00;;;;;;;2.45;100.00;99984.34;106005;1293;59108;-83
2023/12/24 22:21:51;;;;;;;15.00;6.80;;;;;;;2.52;100.00;99984.38;105998;1292;59009;-84
2023/12/24 22:24:22;;;;;;;16.50;7.20;;;;;;;2.55;100.00;99977.46;106134;1289;59342;-84
2023/12/24 22:26:48;;;;;;;15.70;6.80;;;;;;;2.62;100.00;99971.50;106253;1289;61793;-84
2023/12/24 22:29:14;;;;;;;14.20;6.30;;;;;;;2.62;100.00;99969.95;106277;1289;58532;-84
2023/12/24 22:31:40;;;;;;;14.10;7.20;;;;;;;2.60;100.00;99975.31;106703;1285;58269;-84
2023/12/24 22:34:06;;;;;;;15.20;6.70;;;;;;;2.58;100.00;99973.67;106752;1285;58458;-84
2023/12/24 22:36:32;;;;;;;13.70;6.60;;;;;;;2.54;100.00;99976.10;106564;1285;58580;-84
2023/12/24 22:38:59;;;;;;;16.70;6.90;;;;;;;2.51;100.00;99977.56;106512;1285;58560;-84
2023/12/24 22:41:26;;;;;;;15.10;7.20;;;;;;;2.53;100.00;99981.17;106784;1285;58362;-84
2023/12/24 22:43:51;;;;;;;13.10;6.70;;;;;;;2.56;100.00;99986.38;106773;1285;58340;-84
2023/12/24 22:46:19;;;;;;;14.20;7.30;;;;;;;2.59;100.00;99989.54;106729;1285;58291;-84
2023/12/24 22:48:45;;;;;;;23.70;7.10;;;;;;;2.61;100.00;99988.42;106422;1285;58615;-84
2023/12/24 22:51:10;;;;;;;12.60;6.50;;;;;;;2.61;100.00;99993.82;106792;1285;58484;-84
2023/12/24 22:53:36;;;;;;;13.10;6.50;;;;;;;2.60;100.00;99993.55;106821;1285;58283;-84
2023/12/24 22:56:01;;;;;;;17.30;7.40;;;;;;;2.62;100.00;99996.21;106758;1285;74263;-85
2023/12/24 22:58:27;;;;;;;15.20;7.00;;;;;;;2.66;100.00;100003.58;106708;1285;58739;-84
2023/12/24 23:00:52;;;;;;;14.80;7.40;;;;;;;2.62;100.00;100005.06;106720;1285;58559;-84
2023/12/24 23:03:18;;;;;;;13.90;6.70;;;;;;;2.60;100.00;100007.16;106317;1285;58307;-84
2023/12/24 23:05:44;;;;;;;15.90;7.30;;;;;;;2.65;100.00;100007.80;106805;1285;58442;-85
2023/12/24 23:08:09;;;;;;;15.00;7.30;;;;;;;2.67;100.00;100007.45;106314;1286;72814;-86
2023/12/24 23:10:34;;;;;;;15.90;7.10;;;;;;;2.64;100.00;100005.27;106775;1285;58344;-84
2023/12/24 23:13:00;;;;;;;15.50;7.40;;;;;;;2.64;100.00;100006.59;106644;1285;58280;-84
2023/12/24 23:15:26;;;;;;;14.50;7.10;;;;;;;2.62;100.00;100012.39;106819;1284;58595;-85
2023/12/24 23:17:51;;;;;;;15.40;7.40;;;;;;;2.63;100.00;100010.08;106643;1284;58489;-85
2023/12/24 23:20:17;;;;;;;17.70;7.20;;;;;;;2.64;100.00;100014.36;106781;1284;61471;-85
2023/12/24 23:22:42;;;;;;;16.30;6.60;;;;;;;2.68;100.00;100016.94;106814;1284;58424;-85
2023/12/24 23:25:08;;;;;;;16.00;7.60;;;;;;;2.75;100.00;100011.01;106824;1284;58380;-85
2023/12/24 23:27:33;;;;;;;18.30;7.40;;;;;;;2.80;100.00;100011.95;106819;1284;58565;-85
2023/12/24 23:29:59;;;;;;;15.90;6.60;;;;;;;2.80;100.00;100019.61;106422;1284;58394;-85
2023/12/24 23:32:24;;;;;;;13.00;6.90;;;;;;;2.78;100.00;100022.96;106789;1284;58286;-86
2023/12/24 23:34:50;;;;;;;13.40;6.30;;;;;;;2.78;100.00;100024.12;106361;1284;58810;-86
2023/12/24 23:37:15;;;;;;;15.40;6.70;;;;;;;2.73;100.00;100024.73;106811;1284;58433;-86
2023/12/24 23:39:41;;;;;;;12.90;6.70;;;;;;;2.71;100.00;100025.86;106780;1284;58716;-85
2023/12/24 23:42:06;;;;;;;13.50;6.50;;;;;;;2.69;100.00;100027.45;106797;1284;58262;-86
2023/12/24 23:44:32;;;;;;;13.10;6.30;;;;;;;2.66;100.00;100025.02;106835;1284;74501;-86
2023/12/24 23:46:57;;;;;;;16.80;6.60;;;;;;;2.56;100.00;100028.45;106464;1285;58548;-85
2023/12/24 23:49:23;;;;;;;15.80;6.90;;;;;;;2.55;100.00;100029.96;106554;1285;58405;-85
2023/12/24 23:51:48;;;;;;;11.90;6.00;;;;;;;2.53;100.00;100036.70;106804;1284;59086;-86